Buffalo, MN (55313)

6:46 AM CST on March 03, 2015 (GMT -0600)
Buffalo Hills | Change Station
CLOSE
Current Station
Personal Weather Station
Location: Buffalo, MN
Elevation: 1004 ft
Nearby Weather Stations
Active Advisory: Winter Weather Advisory

Elev 1004 ft 45.18 °N, 93.87 °W | Updated 1 second ago

Overcast
Overcast
21.8 °F
Feels Like 22 °F
N
2.8
Wind Variable Wind from ESE
Gusts 3.8 mph

Today
High -- | Low -- °F
--% Chance of Precip.
Yesterday
High -- | Low -- °F
Precip. -- in
6:50 AM 6:05 PM
Waxing Gibbous, 96% visible
Pressure 29.70 in
Visibility 10.0 miles
Clouds Overcast 4500 ft
Windchill 22 °F
Dew Point 18 °F
Humidity 87%
Rainfall 0.00 in
Snow Depth Not available.
UV 0 out of 12
Pollen .40 out of 12
Air Quality Not available.
Flu Activity Not available.
METAR KCFE 031235Z AUTO 12004KT 10SM OVC045 M06/M09 A2970 RMK AO2 T10561094

More Conditions Fewer Conditions

Pressure 29.70 in
Visibility 10.0 miles
Clouds Overcast 4500 ft
Windchill 22 °F
Dew Point 18 °F
Humidity 87%
Rainfall 0.00 in
Snow Depth Not available.
UV 0 out of 12
Pollen .40 out of 12
Air Quality Not available.
Flu Activity Not available.
METAR KCFE 031235Z AUTO 12004KT 10SM OVC045 M06/M09 A2970 RMK AO2 T10561094

More Conditions Fewer Conditions

10-Day Weather Forecast

Almanac

Astronomy

Mar. 03, 2015 Rise Set
Actual Time
Civil Twilight
Nautical Twilight
Astronomical Twilight
Moon
Length of Visible Light
Length of Day
Tomorrow will be .
, % of the Moon is Illuminated

Today's Extremes

State Highs State Lows

Community

WunderPhotos

Upload Photos

1,802,096 photos uploaded!

WunderBlogs® & News

Nearby

Air Quality

  Air Quality AQ Index Pollutant
Not available.

Snow Depth

Station Depth Elevation

Earthquake Activity

City Distance Mag. Time & Date
Minimum magnitude displayed is 2.5.

Coastal Water Temperatures

Place Temperature

Nearby Weather Stations

Winter Weather Advisory
Statement as of 4:13 AM CST on March 03, 2015

... Winter Weather Advisory remains in effect until 9 PM CST this
evening...

* timing... snow will develop early this morning and taper off by
early afternoon as northwest winds increase behind a cold front.
The strong winds will produce areas of blowing snow through
early evening.

* Snow accumulations... 1 to 3 inches.

* Winds/visibility... wind gusts around 35 mph will produce areas
of blowing snow and visibilities less than one mile in open
areas.

* Impacts... travel may be difficult.

Precautionary/preparedness actions...

A Winter Weather Advisory for snow and blowing snow means that
visibilities will be limited due to a combination of falling and
blowing snow. Use caution when traveling... especially in open
areas.



Borghoff